sensor_id;sensor_type;location;lat;lon;timestamp;pressure;altitude;pressure_sealevel;temperature;humidity
50933;BME280;36921;49.006;9.292;2022-11-20T00:01:07;98322.31;;;3.35;100.00
50933;BME280;36921;49.006;9.292;2022-11-20T00:03:34;98312.47;;;3.27;100.00
50933;BME280;36921;49.006;9.292;2022-11-20T00:06:04;98337.00;;;3.47;100.00
50933;BME280;36921;49.006;9.292;2022-11-20T00:08:30;98289.44;;;3.18;100.00
50933;BME280;36921;49.006;9.292;2022-11-20T00:10:55;98312.47;;;3.27;100.00
50933;BME280;36921;49.006;9.292;2022-11-20T00:13:21;98333.69;;;3.37;100.00
50933;BME280;36921;49.006;9.292;2022-11-20T00:15:46;98319.31;;;3.29;100.00
50933;BME280;36921;49.006;9.292;2022-11-20T00:18:11;98335.88;;;3.33;100.00
50933;BME280;36921;49.006;9.292;2022-11-20T00:20:37;98320.00;;;3.23;100.00
50933;BME280;36921;49.006;9.292;2022-11-20T00:23:02;98322.34;;;3.26;100.00
50933;BME280;36921;49.006;9.292;2022-11-20T00:25:27;98322.34;;;3.18;100.00
50933;BME280;36921;49.006;9.292;2022-11-20T00:27:53;98329.19;;;3.21;100.00
50933;BME280;36921;49.006;9.292;2022-11-20T00:30:18;98294.25;;;3.14;100.00
50933;BME280;36921;49.006;9.292;2022-11-20T00:32:43;98274.59;;;2.99;100.00
50933;BME280;36921;49.006;9.292;2022-11-20T00:35:09;98319.81;;;3.17;100.00
50933;BME280;36921;49.006;9.292;2022-11-20T00:37:34;98287.78;;;3.00;100.00
50933;BME280;36921;49.006;9.292;2022-11-20T00:39:59;98305.81;;;3.15;100.00
50933;BME280;36921;49.006;9.292;2022-11-20T00:42:25;98308.31;;;3.16;100.00
50933;BME280;36921;49.006;9.292;2022-11-20T00:44:50;98297.13;;;3.13;100.00
50933;BME280;36921;49.006;9.292;2022-11-20T00:47:15;98297.47;;;3.10;100.00
50933;BME280;36921;49.006;9.292;2022-11-20T00:49:40;98287.59;;;3.10;100.00
50933;BME280;36921;49.006;9.292;2022-11-20T00:52:06;98289.25;;;3.11;100.00
50933;BME280;36921;49.006;9.292;2022-11-20T00:54:31;98316.31;;;3.24;100.00
50933;BME280;36921;49.006;9.292;2022-11-20T00:56:56;98317.47;;;3.30;100.00
50933;BME280;36921;49.006;9.292;2022-11-20T00:59:22;98282.59;;;3.07;100.00
50933;BME280;36921;49.006;9.292;2022-11-20T01:01:47;98328.50;;;3.35;100.00
50933;BME280;36921;49.006;9.292;2022-11-20T01:04:12;98324.16;;;3.42;100.00
50933;BME280;36921;49.006;9.292;2022-11-20T01:06:39;98285.41;;;3.22;100.00
50933;BME280;36921;49.006;9.292;2022-11-20T01:09:12;98296.91;;;3.39;100.00
50933;BME280;36921;49.006;9.292;2022-11-20T01:11:43;98322.59;;;3.56;100.00
50933;BME280;36921;49.006;9.292;2022-11-20T01:14:15;98323.13;;;3.60;100.00
50933;BME280;36921;49.006;9.292;2022-11-20T01:16:43;98336.31;;;3.53;100.00
50933;BME280;36921;49.006;9.292;2022-11-20T01:19:11;98337.69;;;3.49;100.00
50933;BME280;36921;49.006;9.292;2022-11-20T01:21:39;98353.03;;;3.55;100.00
50933;BME280;36921;49.006;9.292;2022-11-20T01:24:06;98348.03;;;3.52;100.00
50933;BME280;36921;49.006;9.292;2022-11-20T01:26:34;98357.06;;;3.51;100.00
50933;BME280;36921;49.006;9.292;2022-11-20T01:29:00;98351.53;;;3.53;100.00
50933;BME280;36921;49.006;9.292;2022-11-20T01:31:29;98339.69;;;3.47;100.00
50933;BME280;36921;49.006;9.292;2022-11-20T01:33:57;98337.19;;;3.37;100.00
50933;BME280;36921;49.006;9.292;2022-11-20T01:36:26;98357.25;;;3.49;100.00
50933;BME280;36921;49.006;9.292;2022-11-20T01:38:53;98363.91;;;3.54;100.00
50933;BME280;36921;49.006;9.292;2022-11-20T01:41:19;98344.03;;;3.48;100.00
50933;BME280;36921;49.006;9.292;2022-11-20T01:44:04;98351.06;;;3.41;100.00
50933;BME280;36921;49.006;9.292;2022-11-20T01:46:36;98339.50;;;3.40;100.00
50933;BME280;36921;49.006;9.292;2022-11-20T01:49:23;98355.03;;;3.53;100.00
50933;BME280;36921;49.006;9.292;2022-11-20T01:51:53;98346.53;;;3.58;100.00
50933;BME280;36921;49.006;9.292;2022-11-20T01:54:46;98347.34;;;3.58;100.00
50933;BME280;36921;49.006;9.292;2022-11-20T01:57:15;98334.34;;;3.47;100.00
50933;BME280;36921;49.006;9.292;2022-11-20T01:59:45;98324.13;;;3.50;100.00
50933;BME280;36921;49.006;9.292;2022-11-20T02:02:12;98340.00;;;3.52;100.00
50933;BME280;36921;49.006;9.292;2022-11-20T02:04:38;98327.63;;;3.51;100.00
50933;BME280;36921;49.006;9.292;2022-11-20T02:07:04;98339.00;;;3.69;100.00
50933;BME280;36921;49.006;9.292;2022-11-20T02:09:30;98336.31;;;3.69;100.00
50933;BME280;36921;49.006;9.292;2022-11-20T02:11:57;98323.59;;;3.63;100.00
50933;BME280;36921;49.006;9.292;2022-11-20T02:14:24;98318.75;;;3.59;100.00
50933;BME280;36921;49.006;9.292;2022-11-20T02:16:50;98316.09;;;3.59;100.00
50933;BME280;36921;49.006;9.292;2022-11-20T02:19:28;98344.31;;;3.78;100.00
50933;BME280;36921;49.006;9.292;2022-11-20T02:24:30;98341.63;;;3.78;100.00
50933;BME280;36921;49.006;9.292;2022-11-20T02:27:07;98337.28;;;3.77;100.00
50933;BME280;36921;49.006;9.292;2022-11-20T02:29:37;98339.59;;;3.88;100.00
50933;BME280;36921;49.006;9.292;2022-11-20T02:32:05;98346.25;;;3.92;100.00
50933;BME280;36921;49.006;9.292;2022-11-20T02:34:31;98343.78;;;3.82;100.00
50933;BME280;36921;49.006;9.292;2022-11-20T02:36:57;98339.78;;;3.78;100.00
50933;BME280;36921;49.006;9.292;2022-11-20T02:39:25;98345.81;;;3.80;100.00
50933;BME280;36921;49.006;9.292;2022-11-20T02:41:56;98332.44;;;3.72;100.00
50933;BME280;36921;49.006;9.292;2022-11-20T02:44:21;98342.28;;;3.80;100.00
50933;BME280;36921;49.006;9.292;2022-11-20T02:46:46;98336.59;;;3.74;100.00
50933;BME280;36921;49.006;9.292;2022-11-20T02:49:12;98336.94;;;3.71;100.00
50933;BME280;36921;49.006;9.292;2022-11-20T02:51:37;98314.25;;;3.67;100.00
50933;BME280;36921;49.006;9.292;2022-11-20T02:54:03;98344.97;;;3.88;100.00
50933;BME280;36921;49.006;9.292;2022-11-20T02:56:28;98309.84;;;3.74;100.00
50933;BME280;36921;49.006;9.292;2022-11-20T02:58:54;98344.59;;;3.99;100.00
50933;BME280;36921;49.006;9.292;2022-11-20T03:01:20;98356.78;;;4.02;100.00
50933;BME280;36921;49.006;9.292;2022-11-20T03:03:46;98330.53;;;3.97;100.00
50933;BME280;36921;49.006;9.292;2022-11-20T03:06:13;98328.31;;;4.01;100.00
50933;BME280;36921;49.006;9.292;2022-11-20T03:08:39;98318.81;;;3.98;100.00
50933;BME280;36921;49.006;9.292;2022-11-20T03:11:06;98335.19;;;4.11;100.00
50933;BME280;36921;49.006;9.292;2022-11-20T03:13:32;98328.84;;;4.04;100.00
50933;BME280;36921;49.006;9.292;2022-11-20T03:15:58;98309.59;;;4.01;100.00
50933;BME280;36921;49.006;9.292;2022-11-20T03:18:23;98311.75;;;4.05;100.00
50933;BME280;36921;49.006;9.292;2022-11-20T03:20:48;98312.72;;;4.12;100.00
50933;BME280;36921;49.006;9.292;2022-11-20T03:23:14;98316.38;;;4.20;100.00
50933;BME280;36921;49.006;9.292;2022-11-20T03:25:39;98298.28;;;4.22;100.00
50933;BME280;36921;49.006;9.292;2022-11-20T03:28:04;98315.78;;;4.41;100.00
50933;BME280;36921;49.006;9.292;2022-11-20T03:30:29;98297.25;;;4.31;100.00
50933;BME280;36921;49.006;9.292;2022-11-20T03:32:55;98302.03;;;4.44;100.00
50933;BME280;36921;49.006;9.292;2022-11-20T03:35:20;98316.56;;;4.49;100.00
50933;BME280;36921;49.006;9.292;2022-11-20T03:37:45;98273.16;;;4.31;100.00
50933;BME280;36921;49.006;9.292;2022-11-20T03:40:11;98286.78;;;4.44;100.00
50933;BME280;36921;49.006;9.292;2022-11-20T03:42:37;98304.13;;;4.56;100.00
50933;BME280;36921;49.006;9.292;2022-11-20T03:45:12;98292.41;;;4.57;100.00
50933;BME280;36921;49.006;9.292;2022-11-20T03:47:37;98282.03;;;4.54;100.00
50933;BME280;36921;49.006;9.292;2022-11-20T03:50:03;98271.69;;;4.51;100.00
50933;BME280;36921;49.006;9.292;2022-11-20T03:52:28;98292.03;;;4.60;100.00
50933;BME280;36921;49.006;9.292;2022-11-20T03:54:53;98260.31;;;4.49;100.00
50933;BME280;36921;49.006;9.292;2022-11-20T03:57:19;98285.47;;;4.63;100.00
50933;BME280;36921;49.006;9.292;2022-11-20T03:59:44;98279.47;;;4.61;100.00
50933;BME280;36921;49.006;9.292;2022-11-20T04:02:09;98286.50;;;4.62;100.00
50933;BME280;36921;49.006;9.292;2022-11-20T04:04:35;98274.31;;;4.59;100.00
50933;BME280;36921;49.006;9.292;2022-11-20T04:07:00;98263.94;;;4.56;100.00
50933;BME280;36921;49.006;9.292;2022-11-20T04:09:25;98284.28;;;4.66;100.00
50933;BME280;36921;49.006;9.292;2022-11-20T04:11:51;98269.66;;;4.53;100.00
50933;BME280;36921;49.006;9.292;2022-11-20T04:14:16;98259.88;;;4.60;100.00
50933;BME280;36921;49.006;9.292;2022-11-20T04:16:42;98261.78;;;4.52;100.00
50933;BME280;36921;49.006;9.292;2022-11-20T04:19:15;98280.31;;;4.61;100.00
50933;BME280;36921;49.006;9.292;2022-11-20T04:21:41;98274.31;;;4.59;100.00
50933;BME280;36921;49.006;9.292;2022-11-20T04:24:07;98276.22;;;4.51;100.00
50933;BME280;36921;49.006;9.292;2022-11-20T04:26:33;98270.19;;;4.49;100.00
50933;BME280;36921;49.006;9.292;2022-11-20T04:28:58;98262.97;;;4.49;100.00
50933;BME280;36921;49.006;9.292;2022-11-20T04:31:27;98276.97;;;4.59;100.00
50933;BME280;36921;49.006;9.292;2022-11-20T04:33:53;98264.31;;;4.53;100.00
50933;BME280;36921;49.006;9.292;2022-11-20T04:36:20;98261.50;;;4.47;100.00
50933;BME280;36921;49.006;9.292;2022-11-20T04:39:00;98261.50;;;4.47;100.00
50933;BME280;36921;49.006;9.292;2022-11-20T04:41:31;98267.31;;;4.50;100.00
50933;BME280;36921;49.006;9.292;2022-11-20T04:44:01;98274.72;;;4.48;100.00
50933;BME280;36921;49.006;9.292;2022-11-20T04:46:37;98269.53;;;4.47;100.00
50933;BME280;36921;49.006;9.292;2022-11-20T04:49:04;98277.50;;;4.55;100.00
50933;BME280;36921;49.006;9.292;2022-11-20T04:51:29;98268.34;;;4.49;100.00
50933;BME280;36921;49.006;9.292;2022-11-20T04:53:55;98269.84;;;4.52;100.00
50933;BME280;36921;49.006;9.292;2022-11-20T04:56:20;98284.50;;;4.64;100.00
50933;BME280;36921;49.006;9.292;2022-11-20T04:58:46;98284.81;;;4.61;100.00
50933;BME280;36921;49.006;9.292;2022-11-20T05:01:20;98255.41;;;4.53;100.00
50933;BME280;36921;49.006;9.292;2022-11-20T05:03:46;98274.59;;;4.65;100.00
50933;BME280;36921;49.006;9.292;2022-11-20T05:06:13;98271.63;;;4.59;100.00
50933;BME280;36921;49.006;9.292;2022-11-20T05:08:39;98268.13;;;4.59;100.00
50933;BME280;36921;49.006;9.292;2022-11-20T05:11:07;98280.78;;;4.65;100.00
50933;BME280;36921;49.006;9.292;2022-11-20T05:13:33;98263.38;;;4.61;100.00
50933;BME280;36921;49.006;9.292;2022-11-20T05:16:24;98261.13;;;4.73;100.00
50933;BME280;36921;49.006;9.292;2022-11-20T05:18:50;98269.53;;;4.70;100.00
50933;BME280;36921;49.006;9.292;2022-11-20T05:21:16;98258.81;;;4.70;100.00
50933;BME280;36921;49.006;9.292;2022-11-20T05:23:42;98261.00;;;4.66;100.00
50933;BME280;36921;49.006;9.292;2022-11-20T05:26:13;98250.50;;;4.65;100.00
50933;BME280;36921;49.006;9.292;2022-11-20T05:28:38;98257.81;;;4.71;100.00
50933;BME280;36921;49.006;9.292;2022-11-20T05:31:12;98258.47;;;4.73;100.00
50933;BME280;36921;49.006;9.292;2022-11-20T05:33:40;98265.47;;;4.74;100.00
50933;BME280;36921;49.006;9.292;2022-11-20T05:36:08;98263.47;;;4.76;100.00
50933;BME280;36921;49.006;9.292;2022-11-20T05:38:34;98262.78;;;4.74;100.00
50933;BME280;36921;49.006;9.292;2022-11-20T05:41:09;98263.66;;;4.74;100.00
50933;BME280;36921;49.006;9.292;2022-11-20T05:43:36;98254.00;;;4.65;100.00
50933;BME280;36921;49.006;9.292;2022-11-20T05:46:02;98258.28;;;4.74;100.00
50933;BME280;36921;49.006;9.292;2022-11-20T05:48:28;98250.13;;;4.68;100.00
50933;BME280;36921;49.006;9.292;2022-11-20T05:50:54;98237.81;;;4.58;100.00
50933;BME280;36921;49.006;9.292;2022-11-20T05:53:19;98241.25;;;4.67;100.00
50933;BME280;36921;49.006;9.292;2022-11-20T05:55:44;98263.47;;;4.76;100.00
50933;BME280;36921;49.006;9.292;2022-11-20T05:58:10;98241.25;;;4.67;100.00
50933;BME280;36921;49.006;9.292;2022-11-20T06:00:35;98235.97;;;4.59;100.00
50933;BME280;36921;49.006;9.292;2022-11-20T06:03:01;98248.28;;;4.68;100.00
50933;BME280;36921;49.006;9.292;2022-11-20T06:05:26;98260.78;;;4.76;100.00
50933;BME280;36921;49.006;9.292;2022-11-20T06:07:52;98245.13;;;4.65;100.00
50933;BME280;36921;49.006;9.292;2022-11-20T06:10:17;98247.63;;;4.66;100.00
50933;BME280;36921;49.006;9.292;2022-11-20T06:12:42;98243.66;;;4.62;100.00
50933;BME280;36921;49.006;9.292;2022-11-20T06:15:08;98252.81;;;4.68;100.00
50933;BME280;36921;49.006;9.292;2022-11-20T06:17:33;98239.28;;;4.61;100.00
50933;BME280;36921;49.006;9.292;2022-11-20T06:19:59;98243.44;;;4.64;100.00
50933;BME280;36921;49.006;9.292;2022-11-20T06:22:24;98234.94;;;4.60;100.00
50933;BME280;36921;49.006;9.292;2022-11-20T06:24:49;98226.44;;;4.56;100.00
50933;BME280;36921;49.006;9.292;2022-11-20T06:27:15;98253.47;;;4.70;100.00
50933;BME280;36921;49.006;9.292;2022-11-20T06:29:41;98224.44;;;4.58;100.00
50933;BME280;36921;49.006;9.292;2022-11-20T06:32:06;98228.75;;;4.59;100.00
50933;BME280;36921;49.006;9.292;2022-11-20T06:34:32;98247.44;;;4.68;100.00
50933;BME280;36921;49.006;9.292;2022-11-20T06:36:58;98237.09;;;4.65;100.00
50933;BME280;36921;49.006;9.292;2022-11-20T06:39:23;98253.94;;;4.73;100.00
50933;BME280;36921;49.006;9.292;2022-11-20T06:41:51;98253.94;;;4.73;100.00
50933;BME280;36921;49.006;9.292;2022-11-20T06:44:32;98238.09;;;4.64;100.00
50933;BME280;36921;49.006;9.292;2022-11-20T06:47:00;98232.94;;;4.62;100.00
50933;BME280;36921;49.006;9.292;2022-11-20T06:49:28;98255.63;;;4.74;100.00
50933;BME280;36921;49.006;9.292;2022-11-20T06:52:09;98254.44;;;4.77;100.00
50933;BME280;36921;49.006;9.292;2022-11-20T06:55:01;98247.88;;;4.79;100.00
50933;BME280;36921;49.006;9.292;2022-11-20T07:04:12;98253.56;;;4.76;100.00
50933;BME280;36921;49.006;9.292;2022-11-20T07:06:38;98274.41;;;4.89;100.00
50933;BME280;36921;49.006;9.292;2022-11-20T07:09:05;98276.56;;;4.94;100.00
50933;BME280;36921;49.006;9.292;2022-11-20T07:11:31;98242.16;;;4.82;100.00
50933;BME280;36921;49.006;9.292;2022-11-20T07:14:06;98183.34;;;4.43;100.00
50933;BME280;36921;49.006;9.292;2022-11-20T07:16:32;98227.03;;;4.67;100.00
50933;BME280;36921;49.006;9.292;2022-11-20T07:18:57;98265.53;;;4.89;100.00
50933;BME280;36921;49.006;9.292;2022-11-20T07:21:22;98292.56;;;5.02;100.00
50933;BME280;36921;49.006;9.292;2022-11-20T07:23:48;98298.47;;;4.97;100.00
50933;BME280;36921;49.006;9.292;2022-11-20T07:26:13;98291.31;;;4.90;100.00
50933;BME280;36921;49.006;9.292;2022-11-20T07:28:39;98277.22;;;4.73;100.00
50933;BME280;36921;49.006;9.292;2022-11-20T07:31:05;98284.28;;;4.66;100.00
50933;BME280;36921;49.006;9.292;2022-11-20T07:33:32;98291.94;;;4.77;100.00
50933;BME280;36921;49.006;9.292;2022-11-20T07:36:01;98303.78;;;4.82;100.00
50933;BME280;36921;49.006;9.292;2022-11-20T07:38:27;98298.97;;;4.78;100.00
50933;BME280;36921;49.006;9.292;2022-11-20T07:40:58;98298.34;;;4.68;100.00
50933;BME280;36921;49.006;9.292;2022-11-20T07:43:26;98300.38;;;4.66;100.00
50933;BME280;36921;49.006;9.292;2022-11-20T07:45:52;98297.38;;;4.60;100.00
50933;BME280;36921;49.006;9.292;2022-11-20T07:48:19;98296.75;;;4.58;100.00
50933;BME280;36921;49.006;9.292;2022-11-20T07:50:45;98294.25;;;4.57;100.00
50933;BME280;36921;49.006;9.292;2022-11-20T07:53:10;98312.28;;;4.63;100.00
50933;BME280;36921;49.006;9.292;2022-11-20T07:55:37;98278.59;;;4.46;100.00
50933;BME280;36921;49.006;9.292;2022-11-20T07:58:02;98308.41;;;4.66;100.00
50933;BME280;36921;49.006;9.292;2022-11-20T08:00:28;98304.28;;;4.55;100.00
50933;BME280;36921;49.006;9.292;2022-11-20T08:02:53;98316.81;;;4.63;100.00
50933;BME280;36921;49.006;9.292;2022-11-20T08:05:44;98313.72;;;4.74;100.00
50933;BME280;36921;49.006;9.292;2022-11-20T08:08:09;98285.69;;;4.61;100.00
50933;BME280;36921;49.006;9.292;2022-11-20T08:10:34;98304.47;;;4.76;100.00
50933;BME280;36921;49.006;9.292;2022-11-20T08:13:00;98310.75;;;4.92;100.00
50933;BME280;36921;49.006;9.292;2022-11-20T08:15:48;98311.47;;;4.86;100.00
50933;BME280;36921;49.006;9.292;2022-11-20T08:18:15;98315.72;;;4.95;100.00
50933;BME280;36921;49.006;9.292;2022-11-20T08:21:07;98337.78;;;5.05;100.00
50933;BME280;36921;49.006;9.292;2022-11-20T08:23:33;98322.19;;;5.09;100.00
50933;BME280;36921;49.006;9.292;2022-11-20T08:26:00;98333.84;;;5.16;100.00
50933;BME280;36921;49.006;9.292;2022-11-20T08:28:28;98322.25;;;5.00;100.00
50933;BME280;36921;49.006;9.292;2022-11-20T08:30:58;98318.63;;;4.93;100.00
50933;BME280;36921;49.006;9.292;2022-11-20T08:33:28;98328.97;;;4.96;100.00
50933;BME280;36921;49.006;9.292;2022-11-20T08:36:01;98340.72;;;4.95;100.00
50933;BME280;36921;49.006;9.292;2022-11-20T08:38:28;98346.53;;;4.99;100.00
50933;BME280;36921;49.006;9.292;2022-11-20T08:40:57;98344.41;;;4.94;100.00
50933;BME280;36921;49.006;9.292;2022-11-20T08:43:41;98346.91;;;4.96;100.00
50933;BME280;36921;49.006;9.292;2022-11-20T08:46:06;98340.53;;;4.97;100.00
50933;BME280;36921;49.006;9.292;2022-11-20T08:48:31;98340.88;;;4.94;100.00
50933;BME280;36921;49.006;9.292;2022-11-20T08:50:58;98352.38;;;5.02;100.00
50933;BME280;36921;49.006;9.292;2022-11-20T08:53:24;98333.66;;;4.94;100.00
50933;BME280;36921;49.006;9.292;2022-11-20T08:55:49;98345.06;;;4.96;100.00
50933;BME280;36921;49.006;9.292;2022-11-20T08:58:15;98356.97;;;4.94;100.00
50933;BME280;36921;49.006;9.292;2022-11-20T09:00:40;98339.09;;;4.86;100.00
50933;BME280;36921;49.006;9.292;2022-11-20T09:03:05;98354.22;;;5.02;100.00
50933;BME280;36921;49.006;9.292;2022-11-20T09:05:31;98372.75;;;5.12;100.00
50933;BME280;36921;49.006;9.292;2022-11-20T09:07:59;98350.28;;;5.13;100.00
50933;BME280;36921;49.006;9.292;2022-11-20T09:10:26;98330.28;;;5.00;100.00
50933;BME280;36921;49.006;9.292;2022-11-20T09:12:52;98369.78;;;5.30;100.00
50933;BME280;36921;49.006;9.292;2022-11-20T09:15:17;98367.94;;;5.30;100.00
50933;BME280;36921;49.006;9.292;2022-11-20T09:17:53;98365.69;;;5.19;100.00
50933;BME280;36921;49.006;9.292;2022-11-20T09:20:19;98352.91;;;5.21;100.00
50933;BME280;36921;49.006;9.292;2022-11-20T09:22:45;98372.25;;;5.31;100.00
50933;BME280;36921;49.006;9.292;2022-11-20T09:25:11;98368.28;;;5.27;100.00
50933;BME280;36921;49.006;9.292;2022-11-20T09:27:36;98365.31;;;5.22;100.00
50933;BME280;36921;49.006;9.292;2022-11-20T09:30:03;98365.59;;;5.27;100.00
50933;BME280;36921;49.006;9.292;2022-11-20T09:32:28;98369.41;;;5.33;100.00
50933;BME280;36921;49.006;9.292;2022-11-20T09:34:54;98381.56;;;5.43;100.00
50933;BME280;36921;49.006;9.292;2022-11-20T09:37:19;98347.81;;;5.26;100.00
50933;BME280;36921;49.006;9.292;2022-11-20T09:39:44;98354.28;;;5.55;100.00
50933;BME280;36921;49.006;9.292;2022-11-20T09:42:22;98378.09;;;5.72;100.00
50933;BME280;36921;49.006;9.292;2022-11-20T09:44:58;98378.31;;;5.86;100.00
50933;BME280;36921;49.006;9.292;2022-11-20T09:49:59;98374.72;;;5.93;100.00
50933;BME280;36921;49.006;9.292;2022-11-20T09:52:54;98376.50;;;6.16;100.00
50933;BME280;36921;49.006;9.292;2022-11-20T09:55:21;98365.28;;;6.12;100.00
50933;BME280;36921;49.006;9.292;2022-11-20T10:01:15;98354.81;;;6.32;100.00
50933;BME280;36921;49.006;9.292;2022-11-20T10:03:52;98359.44;;;6.39;100.00
50933;BME280;36921;49.006;9.292;2022-11-20T10:06:23;98357.28;;;6.34;100.00
50933;BME280;36921;49.006;9.292;2022-11-20T10:14:39;98351.34;;;6.53;100.00
50933;BME280;36921;49.006;9.292;2022-11-20T10:25:37;98326.91;;;6.33;100.00
50933;BME280;36921;49.006;9.292;2022-11-20T10:28:15;98334.50;;;6.45;100.00
50933;BME280;36921;49.006;9.292;2022-11-20T10:30:44;98342.91;;;6.42;100.00
50933;BME280;36921;49.006;9.292;2022-11-20T10:33:19;98342.31;;;6.40;100.00
50933;BME280;36921;49.006;9.292;2022-11-20T10:36:14;98349.72;;;6.38;100.00
50933;BME280;36921;49.006;9.292;2022-11-20T10:38:59;98341.22;;;6.19;100.00
50933;BME280;36921;49.006;9.292;2022-11-20T10:41:29;98362.03;;;6.32;100.00
50933;BME280;36921;49.006;9.292;2022-11-20T10:44:03;98359.31;;;6.47;100.00
50933;BME280;36921;49.006;9.292;2022-11-20T10:46:36;98354.09;;;6.60;100.00
50933;BME280;36921;49.006;9.292;2022-11-20T10:49:12;98359.72;;;6.80;100.00
50933;BME280;36921;49.006;9.292;2022-11-20T10:52:13;98348.66;;;7.11;100.00
50933;BME280;36921;49.006;9.292;2022-11-20T10:54:50;98338.59;;;7.20;100.00
50933;BME280;36921;49.006;9.292;2022-11-20T11:00:13;98337.91;;;7.11;100.00
50933;BME280;36921;49.006;9.292;2022-11-20T11:02:46;98322.34;;;6.85;100.00
50933;BME280;36921;49.006;9.292;2022-11-20T11:05:36;98332.91;;;6.87;100.00
50933;BME280;36921;49.006;9.292;2022-11-20T11:08:03;98327.53;;;6.50;100.00
50933;BME280;36921;49.006;9.292;2022-11-20T11:13:29;98342.56;;;6.45;100.00
50933;BME280;36921;49.006;9.292;2022-11-20T11:15:56;98336.16;;;6.46;100.00
50933;BME280;36921;49.006;9.292;2022-11-20T11:18:27;98332.84;;;6.65;100.00
50933;BME280;36921;49.006;9.292;2022-11-20T11:20:54;98333.50;;;6.67;100.00
50933;BME280;36921;49.006;9.292;2022-11-20T11:23:40;98311.69;;;6.55;100.00
50933;BME280;36921;49.006;9.292;2022-11-20T11:26:18;98313.56;;;6.76;100.00
50933;BME280;36921;49.006;9.292;2022-11-20T11:28:53;98298.03;;;6.57;100.00
50933;BME280;36921;49.006;9.292;2022-11-20T11:31:24;98303.28;;;6.65;100.00
50933;BME280;36921;49.006;9.292;2022-11-20T11:33:49;98286.06;;;6.59;100.00
50933;BME280;36921;49.006;9.292;2022-11-20T11:36:22;98303.75;;;6.69;100.00
50933;BME280;36921;49.006;9.292;2022-11-20T11:38:51;98297.44;;;6.76;100.00
50933;BME280;36921;49.006;9.292;2022-11-20T11:41:22;98289.38;;;6.76;100.00
50933;BME280;36921;49.006;9.292;2022-11-20T11:43:56;98286.25;;;6.94;100.00
50933;BME280;36921;49.006;9.292;2022-11-20T11:46:51;98284.53;;;7.15;100.00
50933;BME280;36921;49.006;9.292;2022-11-20T11:49:19;98277.78;;;7.54;100.00
50933;BME280;36921;49.006;9.292;2022-11-20T11:54:28;98236.63;;;7.60;100.00
50933;BME280;36921;49.006;9.292;2022-11-20T11:56:59;98249.75;;;8.18;100.00
50933;BME280;36921;49.006;9.292;2022-11-20T12:13:30;98242.91;;;7.74;100.00
50933;BME280;36921;49.006;9.292;2022-11-20T12:15:58;98243.50;;;8.17;100.00
50933;BME280;36921;49.006;9.292;2022-11-20T12:18:23;98236.19;;;8.39;100.00
50933;BME280;36921;49.006;9.292;2022-11-20T12:43:06;98207.09;;;13.04;100.00
50933;BME280;36921;49.006;9.292;2022-11-20T12:48:51;98198.91;;;15.46;93.25
50933;BME280;36921;49.006;9.292;2022-11-20T12:51:25;98213.25;;;15.42;78.90
50933;BME280;36921;49.006;9.292;2022-11-20T12:57:18;98208.19;;;13.85;81.44
50933;BME280;36921;49.006;9.292;2022-11-20T13:07:57;98225.78;;;9.69;100.00
50933;BME280;36921;49.006;9.292;2022-11-20T13:13:01;98209.47;;;8.77;100.00
50933;BME280;36921;49.006;9.292;2022-11-20T13:15:59;98224.63;;;8.65;100.00
50933;BME280;36921;49.006;9.292;2022-11-20T13:18:25;98183.13;;;9.13;100.00
50933;BME280;36921;49.006;9.292;2022-11-20T13:20:51;98183.81;;;10.18;100.00
50933;BME280;36921;49.006;9.292;2022-11-20T13:23:27;98205.53;;;11.50;100.00
50933;BME280;36921;49.006;9.292;2022-11-20T13:26:25;98208.97;;;13.15;94.88
50933;BME280;36921;49.006;9.292;2022-11-20T13:29:11;98195.91;;;13.59;83.87
50933;BME280;36921;49.006;9.292;2022-11-20T13:31:39;98188.69;;;13.76;82.33
50933;BME280;36921;49.006;9.292;2022-11-20T13:34:13;98193.94;;;11.43;92.38
50933;BME280;36921;49.006;9.292;2022-11-20T13:36:50;98174.81;;;10.38;100.00
50933;BME280;36921;49.006;9.292;2022-11-20T13:39:27;98186.44;;;9.08;100.00
50933;BME280;36921;49.006;9.292;2022-11-20T13:41:58;98193.28;;;8.64;100.00
50933;BME280;36921;49.006;9.292;2022-11-20T13:44:37;98176.25;;;8.50;100.00
50933;BME280;36921;49.006;9.292;2022-11-20T13:47:04;98180.50;;;8.05;100.00
50933;BME280;36921;49.006;9.292;2022-11-20T13:49:44;98179.81;;;7.89;100.00
50933;BME280;36921;49.006;9.292;2022-11-20T14:00:28;98186.50;;;8.07;100.00
50933;BME280;36921;49.006;9.292;2022-11-20T14:05:35;98207.50;;;7.77;100.00
50933;BME280;36921;49.006;9.292;2022-11-20T14:08:03;98207.63;;;7.62;100.00
50933;BME280;36921;49.006;9.292;2022-11-20T14:10:30;98199.78;;;7.60;100.00
50933;BME280;36921;49.006;9.292;2022-11-20T14:12:56;98172.19;;;7.17;100.00
50933;BME280;36921;49.006;9.292;2022-11-20T14:15:33;98202.91;;;7.29;100.00
50933;BME280;36921;49.006;9.292;2022-11-20T14:17:59;98194.84;;;7.36;100.00
50933;BME280;36921;49.006;9.292;2022-11-20T14:20:37;98183.09;;;7.37;100.00
50933;BME280;36921;49.006;9.292;2022-11-20T14:23:02;98198.91;;;7.53;100.00
50933;BME280;36921;49.006;9.292;2022-11-20T14:25:30;98177.31;;;7.40;100.00
50933;BME280;36921;49.006;9.292;2022-11-20T14:27:58;98173.56;;;7.41;100.00
50933;BME280;36921;49.006;9.292;2022-11-20T14:30:39;98192.88;;;7.51;100.00
50933;BME280;36921;49.006;9.292;2022-11-20T14:33:11;98189.78;;;7.54;100.00
50933;BME280;36921;49.006;9.292;2022-11-20T14:35:44;98185.44;;;7.53;100.00
50933;BME280;36921;49.006;9.292;2022-11-20T14:38:13;98165.31;;;7.49;100.00
50933;BME280;36921;49.006;9.292;2022-11-20T14:40:39;98165.38;;;7.56;100.00
50933;BME280;36921;49.006;9.292;2022-11-20T14:43:28;98185.44;;;7.53;100.00
50933;BME280;36921;49.006;9.292;2022-11-20T14:46:05;98158.47;;;7.40;100.00
50933;BME280;36921;49.006;9.292;2022-11-20T14:48:44;98176.94;;;7.50;100.00
50933;BME280;36921;49.006;9.292;2022-11-20T14:51:11;98166.97;;;7.43;100.00
50933;BME280;36921;49.006;9.292;2022-11-20T14:53:37;98144.28;;;7.24;100.00